South Bowie, Maryland
Current Conditions -  °F | °C
As of 5:06 AM on Wednesday 26 Nov 2014 (Local Time) from KFME Reporting Station
Overcast Overcast  
Wind Chill: 43°   Ceiling: 4800
Heat Index: 43°   Visibility: 7mi
Dew Point: 37°   Wind: 0mph
Humidity: 81%   Direction: NA
Pressure: 30.09"   Gusts: NA
Location:  38.927°N, 76.7149°W
Report Text: KFME 261006Z AUTO 00000KT 7SM OVC048 06/03 A3009 RMK AO1
Loading
Personal Weather Stations






























Interactive Weather Map New forecast layout! Learn more

10-Day Weather Forecast

Advertisements
Track Severe Weather on mobile